Time;durP1;ratioP1;P1;durP2;ratioP2;P2;SDS_P1;SDS_P2;PMS_P1;PMS_P2;Temp;Humidity;BMP_temperature;BMP_pressure;BME280_temperature;BME280_humidity;BME280_pressure;Samples;Min_cycle;Max_cycle;Signal;HPM_P1;HPM_P2
2022/07/26 00:01:33;;;;;;;5.10;3.10;;;24.30;73.00;;;;;;5055270;28;20891;-58
2022/07/26 00:04:00;;;;;;;2.57;2.33;;;24.30;73.10;;;;;;5055132;28;20454;-58
2022/07/26 00:06:28;;;;;;;3.37;2.40;;;24.30;73.00;;;;;;5054991;28;21007;-58
2022/07/26 00:08:55;;;;;;;3.50;2.00;;;24.30;73.60;;;;;;5054855;28;20454;-58
2022/07/26 00:11:24;;;;;;;3.80;2.30;;;24.10;73.60;;;;;;5054840;28;20542;-58
2022/07/26 00:13:51;;;;;;;3.60;2.20;;;24.10;74.20;;;;;;5054947;28;20453;-58
2022/07/26 00:16:19;;;;;;;3.67;2.60;;;24.00;74.30;;;;;;5055051;28;20441;-58
2022/07/26 00:18:46;;;;;;;6.40;2.30;;;24.10;74.60;;;;;;5055149;28;20522;-58
2022/07/26 00:21:14;;;;;;;6.00;2.10;;;24.20;74.60;;;;;;5054676;28;20465;-58
2022/07/26 00:23:41;;;;;;;5.67;2.33;;;24.20;74.80;;;;;;5054580;28;20532;-58
2022/07/26 00:26:08;;;;;;;3.40;3.00;;;24.10;75.00;;;;;;5054939;28;20485;-58
2022/07/26 00:28:37;;;;;;;3.00;2.20;;;24.20;75.10;;;;;;5054914;28;20506;-58
2022/07/26 00:31:05;;;;;;;4.97;3.07;;;24.20;75.10;;;;;;5054855;28;20500;-58
2022/07/26 00:33:32;;;;;;;3.27;2.27;;;24.20;75.50;;;;;;5054384;28;20453;-58
2022/07/26 00:35:59;;;;;;;3.30;2.30;;;24.20;75.60;;;;;;5054312;28;20463;-58
2022/07/26 00:38:26;;;;;;;3.00;2.23;;;24.20;75.70;;;;;;5054805;28;20451;-58
2022/07/26 00:40:53;;;;;;;6.07;2.70;;;24.30;76.10;;;;;;5054738;28;20479;-58
2022/07/26 00:43:20;;;;;;;2.50;2.30;;;24.20;76.00;;;;;;5034630;28;20540;-58
2022/07/26 00:45:49;;;;;;;7.90;2.83;;;24.20;76.50;;;;;;5034697;28;20486;-58
2022/07/26 00:48:17;;;;;;;6.53;2.73;;;24.30;76.90;;;;;;5033328;28;20482;-58
2022/07/26 00:50:44;;;;;;;1.93;1.83;;;24.30;76.70;;;;;;5034090;28;20477;-58
2022/07/26 00:53:11;;;;;;;3.23;2.20;;;24.30;77.20;;;;;;5034645;28;20450;-58
2022/07/26 00:55:39;;;;;;;2.80;2.33;;;24.30;77.60;;;;;;5034438;28;20508;-58
2022/07/26 00:58:06;;;;;;;5.00;2.40;;;24.30;77.50;;;;;;5034337;28;20452;-58
2022/07/26 01:00:33;;;;;;;3.80;3.50;;;24.30;77.90;;;;;;5034415;28;20469;-58
2022/07/26 01:03:02;;;;;;;2.73;2.03;;;24.10;78.20;;;;;;5033985;28;20859;-58
2022/07/26 01:05:30;;;;;;;2.50;2.30;;;24.00;78.80;;;;;;5033898;28;20481;-58
2022/07/26 01:07:58;;;;;;;3.20;1.77;;;24.00;79.10;;;;;;5033920;28;20564;-58
2022/07/26 01:10:25;;;;;;;3.13;1.73;;;24.10;79.90;;;;;;5034191;28;20482;-58
2022/07/26 01:12:52;;;;;;;2.30;2.10;;;24.20;81.90;;;;;;5033801;28;20454;-58
2022/07/26 01:15:20;;;;;;;3.93;2.10;;;24.10;84.20;;;;;;5033908;28;20444;-58
2022/07/26 01:17:47;;;;;;;3.93;2.17;;;23.90;86.90;;;;;;5034127;28;20533;-58
2022/07/26 01:20:16;;;;;;;2.40;2.10;;;23.80;89.30;;;;;;5033787;28;20541;-58
2022/07/26 01:22:45;;;;;;;3.10;2.60;;;23.50;91.70;;;;;;5033864;28;20529;-57
2022/07/26 01:25:12;;;;;;;2.30;2.10;;;23.20;93.90;;;;;;5034023;28;20450;-58
2022/07/26 01:27:39;;;;;;;4.10;2.37;;;23.00;95.70;;;;;;5033755;28;20494;-57
2022/07/26 01:30:10;;;;;;;4.40;2.20;;;23.00;97.20;;;;;;5033664;28;20466;-58
2022/07/26 01:32:37;;;;;;;3.50;2.37;;;22.90;99.20;;;;;;5033594;28;20959;-58
2022/07/26 01:35:05;;;;;;;2.57;2.13;;;22.90;99.90;;;;;;5033388;28;20541;-58
2022/07/26 01:37:32;;;;;;;9.03;2.30;;;22.70;99.90;;;;;;5033293;28;20446;-58
2022/07/26 01:40:01;;;;;;;2.83;2.33;;;22.70;99.90;;;;;;5033798;28;21000;-58
2022/07/26 01:42:28;;;;;;;3.33;2.43;;;22.60;99.90;;;;;;5045832;28;20564;-58
2022/07/26 01:44:55;;;;;;;2.97;2.50;;;22.30;99.90;;;;;;5053165;28;20473;-58
2022/07/26 01:47:22;;;;;;;3.00;2.57;;;22.20;99.90;;;;;;5053137;28;20564;-58
2022/07/26 01:49:54;;;;;;;2.80;2.37;;;22.20;99.90;;;;;;5053049;28;20492;-58
2022/07/26 01:52:21;;;;;;;2.23;1.97;;;22.20;99.90;;;;;;5053365;28;20484;-58
2022/07/26 01:54:48;;;;;;;5.67;2.23;;;22.10;99.90;;;;;;5053254;28;20503;-58
2022/07/26 01:57:17;;;;;;;3.33;2.30;;;22.10;99.90;;;;;;5053345;28;20455;-58
2022/07/26 01:59:44;;;;;;;2.43;2.23;;;22.00;99.90;;;;;;5052711;28;20473;-58
2022/07/26 02:02:11;;;;;;;2.90;2.40;;;22.10;99.90;;;;;;5053184;28;20449;-58
2022/07/26 02:07:23;;;;;;;2.30;2.10;;;22.20;99.90;;;;;;5053101;28;20468;-57
2022/07/26 02:09:50;;;;;;;2.80;2.43;;;22.30;99.90;;;;;;5052904;28;20949;-58
2022/07/26 02:12:18;;;;;;;3.60;2.10;;;22.20;99.90;;;;;;5052710;28;20449;-58
2022/07/26 02:14:45;;;;;;;2.77;1.90;;;22.20;99.90;;;;;;5052849;28;20938;-58
2022/07/26 02:17:13;;;;;;;1.90;1.80;;;22.30;99.90;;;;;;5052712;28;20901;-58
2022/07/26 02:19:40;;;;;;;2.60;2.40;;;22.30;99.90;;;;;;5052502;28;20450;-57
2022/07/26 02:22:07;;;;;;;2.33;2.00;;;22.20;99.90;;;;;;5052800;28;20468;-58
2022/07/26 02:24:34;;;;;;;3.83;2.07;;;22.30;99.90;;;;;;5052943;28;20449;-57
2022/07/26 02:27:02;;;;;;;3.80;2.00;;;22.40;99.90;;;;;;5052447;28;20782;-57
2022/07/26 02:29:31;;;;;;;2.40;2.20;;;22.50;99.90;;;;;;5052890;28;20453;-57
2022/07/26 02:31:58;;;;;;;2.43;2.23;;;22.60;99.90;;;;;;5052632;28;20938;-57
2022/07/26 02:34:26;;;;;;;4.63;2.10;;;22.50;99.90;;;;;;5052531;28;20433;-57
2022/07/26 02:36:53;;;;;;;7.73;2.20;;;22.60;99.90;;;;;;5052609;28;20453;-57
2022/07/26 02:39:20;;;;;;;4.40;2.60;;;22.70;99.90;;;;;;5052674;28;20457;-57
2022/07/26 02:41:48;;;;;;;3.90;2.40;;;22.70;99.90;;;;;;5052744;28;20476;-57
2022/07/26 02:44:16;;;;;;;6.47;2.10;;;22.70;99.90;;;;;;5052877;28;20848;-58
2022/07/26 02:46:44;;;;;;;2.90;1.73;;;22.70;99.90;;;;;;5052459;28;20449;-57
2022/07/26 02:49:11;;;;;;;2.33;2.13;;;22.70;99.90;;;;;;5052581;28;20485;-57
2022/07/26 02:51:38;;;;;;;4.00;2.10;;;22.60;99.90;;;;;;5052338;28;20463;-57
2022/07/26 02:54:05;;;;;;;2.00;1.90;;;22.60;99.90;;;;;;5052786;28;20445;-57
2022/07/26 02:56:32;;;;;;;2.37;2.17;;;22.60;99.90;;;;;;5052286;28;20445;-58
2022/07/26 02:58:59;;;;;;;3.10;1.97;;;22.60;99.90;;;;;;5052594;28;20441;-57
2022/07/26 03:01:26;;;;;;;2.23;2.03;;;22.50;99.90;;;;;;5052667;28;20888;-57
2022/07/26 03:03:55;;;;;;;4.17;1.80;;;22.50;99.90;;;;;;5052239;28;20456;-57
2022/07/26 03:06:22;;;;;;;2.07;1.87;;;22.50;99.90;;;;;;5052231;28;20445;-57
2022/07/26 03:08:49;;;;;;;2.10;1.90;;;22.50;99.90;;;;;;5052103;28;20539;-58
2022/07/26 03:11:16;;;;;;;3.63;2.07;;;22.60;99.90;;;;;;5053139;28;20995;-58
2022/07/26 03:13:43;;;;;;;3.67;2.17;;;22.60;99.90;;;;;;5056256;28;20445;-58
2022/07/26 03:16:11;;;;;;;4.50;2.20;;;22.60;99.90;;;;;;5056033;28;20930;-58
2022/07/26 03:18:38;;;;;;;2.30;2.10;;;22.60;99.90;;;;;;5055841;28;20957;-58
2022/07/26 03:21:07;;;;;;;2.07;1.87;;;22.50;99.90;;;;;;5056039;28;20480;-58
2022/07/26 03:23:34;;;;;;;2.00;1.70;;;22.50;99.90;;;;;;5056192;28;20445;-58
2022/07/26 03:26:02;;;;;;;3.00;2.00;;;22.50;99.90;;;;;;5056041;28;20452;-57
2022/07/26 03:28:30;;;;;;;2.40;2.20;;;22.50;99.90;;;;;;5055631;28;20485;-58
2022/07/26 03:30:58;;;;;;;2.70;1.90;;;22.50;99.90;;;;;;5055658;28;20905;-58
2022/07/26 03:33:25;;;;;;;2.17;1.83;;;22.40;99.90;;;;;;5055906;28;20472;-58
2022/07/26 03:35:52;;;;;;;3.57;3.27;;;22.40;99.90;;;;;;5055833;28;20460;-58
2022/07/26 03:38:20;;;;;;;2.50;1.70;;;22.40;99.90;;;;;;5055720;28;20996;-58
2022/07/26 03:40:48;;;;;;;3.67;2.70;;;22.30;99.90;;;;;;5055925;28;20473;-58
2022/07/26 03:43:15;;;;;;;2.30;2.10;;;22.10;99.90;;;;;;5055085;28;20479;-58
2022/07/26 03:45:46;;;;;;;3.17;2.10;;;22.10;99.90;;;;;;5055764;28;20453;-58
2022/07/26 03:48:13;;;;;;;2.73;2.20;;;22.10;99.90;;;;;;5055661;28;20496;-57
2022/07/26 03:50:40;;;;;;;5.17;2.00;;;22.10;99.90;;;;;;5055115;28;20473;-57
2022/07/26 03:53:07;;;;;;;1.87;1.57;;;22.20;99.90;;;;;;5055218;28;20448;-57
2022/07/26 03:58:20;;;;;;;2.30;2.10;;;22.00;99.90;;;;;;5055493;28;20416;-57
2022/07/26 04:00:47;;;;;;;5.77;2.03;;;22.00;99.90;;;;;;5054994;28;20577;-57
2022/07/26 04:03:14;;;;;;;3.40;2.37;;;21.90;99.90;;;;;;5054979;28;20908;-57
2022/07/26 04:05:41;;;;;;;2.73;2.53;;;21.90;99.90;;;;;;5055099;28;20808;-57
2022/07/26 04:08:08;;;;;;;2.30;2.10;;;21.80;99.90;;;;;;5055192;28;20504;-57
2022/07/26 04:10:37;;;;;;;3.10;2.17;;;21.70;99.90;;;;;;5055231;28;20953;-57
2022/07/26 04:13:04;;;;;;;2.90;2.33;;;21.80;99.90;;;;;;5055011;28;20958;-57
2022/07/26 04:15:31;;;;;;;2.23;2.03;;;21.70;99.90;;;;;;5055089;28;20499;-58
2022/07/26 04:17:58;;;;;;;2.67;2.33;;;21.70;99.90;;;;;;5055004;28;20481;-57
2022/07/26 04:20:25;;;;;;;2.63;2.10;;;21.60;99.90;;;;;;5054673;28;20458;-58
2022/07/26 04:22:52;;;;;;;2.40;2.20;;;21.60;99.90;;;;;;5053317;28;20446;-58
2022/07/26 04:25:19;;;;;;;2.43;2.00;;;21.60;99.90;;;;;;5054680;28;20452;-57
2022/07/26 04:27:48;;;;;;;2.90;2.47;;;21.50;99.90;;;;;;5054594;28;20452;-57
2022/07/26 04:30:15;;;;;;;2.40;2.20;;;21.50;99.90;;;;;;5054766;28;20523;-57
2022/07/26 04:32:43;;;;;;;3.07;2.77;;;21.40;99.90;;;;;;5054576;28;20810;-57
2022/07/26 04:35:11;;;;;;;3.23;2.93;;;21.40;99.90;;;;;;5054792;28;20452;-57
2022/07/26 04:37:42;;;;;;;2.67;2.47;;;21.40;99.90;;;;;;5054409;28;20941;-57
2022/07/26 04:40:11;;;;;;;2.97;2.37;;;21.40;99.90;;;;;;5054556;28;20531;-57
2022/07/26 04:42:38;;;;;;;2.40;2.20;;;21.30;99.90;;;;;;5054031;28;20496;-57
2022/07/26 04:45:09;;;;;;;2.70;2.43;;;21.30;99.90;;;;;;5054319;28;20449;-57
2022/07/26 04:47:37;;;;;;;2.30;2.10;;;21.30;99.90;;;;;;5054495;28;20910;-57
2022/07/26 04:50:05;;;;;;;2.80;2.60;;;21.30;99.90;;;;;;5053891;28;21072;-57
2022/07/26 04:52:32;;;;;;;2.73;2.37;;;21.30;99.90;;;;;;5054066;28;20453;-57
2022/07/26 04:54:59;;;;;;;6.70;2.67;;;21.40;99.90;;;;;;5054250;28;20457;-57
2022/07/26 04:57:26;;;;;;;2.77;2.57;;;21.40;99.90;;;;;;5053925;28;20492;-57
2022/07/26 04:59:53;;;;;;;3.17;2.60;;;21.60;99.90;;;;;;5054295;28;20548;-57
2022/07/26 05:02:22;;;;;;;2.87;2.67;;;21.70;99.90;;;;;;5053882;28;20533;-57
2022/07/26 05:04:49;;;;;;;3.80;3.20;;;21.70;99.90;;;;;;5054020;28;20499;-57
2022/07/26 05:07:16;;;;;;;3.03;2.73;;;21.60;99.90;;;;;;5054272;28;20892;-57
2022/07/26 05:09:44;;;;;;;2.60;2.40;;;21.60;99.90;;;;;;5053858;28;20493;-57
2022/07/26 05:12:11;;;;;;;3.20;2.90;;;21.60;99.90;;;;;;5053549;28;21043;-57
2022/07/26 05:14:38;;;;;;;3.63;2.70;;;21.60;99.90;;;;;;5053906;28;20862;-57
2022/07/26 05:17:06;;;;;;;5.17;2.93;;;21.60;99.90;;;;;;5053899;28;20448;-57
2022/07/26 05:19:34;;;;;;;2.30;2.20;;;21.60;99.90;;;;;;5053355;28;20465;-57
2022/07/26 05:22:02;;;;;;;4.17;2.73;;;21.90;99.90;;;;;;5053429;28;20452;-57
2022/07/26 05:24:29;;;;;;;4.30;3.20;;;21.90;99.90;;;;;;5053306;28;21030;-57
2022/07/26 05:26:56;;;;;;;2.83;2.60;;;22.00;99.90;;;;;;5053319;28;20445;-57
2022/07/26 05:29:23;;;;;;;2.80;2.60;;;22.20;99.90;;;;;;5053087;28;20565;-57
2022/07/26 05:31:50;;;;;;;3.70;3.40;;;22.30;99.90;;;;;;5053262;28;20483;-57
2022/07/26 05:34:18;;;;;;;4.67;3.30;;;22.20;99.90;;;;;;5052835;28;20445;-57
2022/07/26 05:36:46;;;;;;;7.40;3.00;;;22.30;99.90;;;;;;5053113;28;20540;-57
2022/07/26 05:39:13;;;;;;;3.10;2.70;;;22.40;99.90;;;;;;5052959;28;20548;-57
2022/07/26 05:41:40;;;;;;;3.50;3.23;;;22.40;99.90;;;;;;5053048;28;20481;-57
2022/07/26 05:44:08;;;;;;;4.10;3.20;;;22.20;99.90;;;;;;5052808;28;20453;-57
2022/07/26 05:46:37;;;;;;;6.30;3.40;;;22.00;99.90;;;;;;5052944;28;20453;-57
2022/07/26 05:49:04;;;;;;;3.10;2.90;;;21.80;99.90;;;;;;5053113;28;20490;-57
2022/07/26 05:51:32;;;;;;;5.20;3.60;;;21.70;99.90;;;;;;5052640;28;20475;-57
2022/07/26 05:54:01;;;;;;;3.07;2.80;;;21.60;99.90;;;;;;5053085;28;20989;-57
2022/07/26 05:56:28;;;;;;;3.93;3.63;;;21.70;99.90;;;;;;5052791;28;20543;-57
2022/07/26 05:58:55;;;;;;;2.77;2.57;;;21.70;99.90;;;;;;5053118;28;20786;-57
2022/07/26 06:01:23;;;;;;;3.50;3.20;;;21.70;99.90;;;;;;5052930;28;20491;-57
2022/07/26 06:03:50;;;;;;;3.80;3.07;;;21.70;99.90;;;;;;5053011;28;20481;-57
2022/07/26 06:06:17;;;;;;;3.30;3.00;;;21.80;99.90;;;;;;5052773;28;20429;-57
2022/07/26 06:08:44;;;;;;;2.97;2.77;;;21.90;99.90;;;;;;5052821;28;20513;-57
2022/07/26 06:11:13;;;;;;;3.63;3.23;;;21.80;99.90;;;;;;5052898;28;20933;-57
2022/07/26 06:13:40;;;;;;;8.00;3.30;;;21.90;99.90;;;;;;5052636;28;20902;-58
2022/07/26 06:16:08;;;;;;;9.80;3.07;;;22.00;99.90;;;;;;5052762;28;20527;-57
2022/07/26 06:18:35;;;;;;;3.83;3.43;;;22.10;99.90;;;;;;5052877;28;20524;-57
2022/07/26 06:21:02;;;;;;;4.13;2.40;;;22.20;99.90;;;;;;5052290;28;20958;-57
2022/07/26 06:23:30;;;;;;;6.20;2.87;;;22.30;99.90;;;;;;5052496;28;20451;-57
2022/07/26 06:25:57;;;;;;;5.33;2.40;;;22.40;99.90;;;;;;5052489;28;20460;-57
2022/07/26 06:28:29;;;;;;;3.60;2.57;;;22.40;99.90;;;;;;5052465;28;20449;-57
2022/07/26 06:30:56;;;;;;;3.60;2.70;;;22.50;99.90;;;;;;5052303;28;20901;-57
2022/07/26 06:33:23;;;;;;;6.80;2.80;;;22.30;99.90;;;;;;5052683;28;20522;-57
2022/07/26 06:35:51;;;;;;;2.60;2.40;;;22.50;99.90;;;;;;5052624;28;20528;-57
2022/07/26 06:38:18;;;;;;;4.20;2.83;;;22.60;99.90;;;;;;5052656;28;20452;-57
2022/07/26 06:40:45;;;;;;;3.10;2.37;;;22.70;99.90;;;;;;5052310;28;20473;-58
2022/07/26 06:43:12;;;;;;;3.47;2.90;;;22.70;99.90;;;;;;5052042;28;20885;-57
2022/07/26 06:45:41;;;;;;;2.10;1.90;;;22.80;99.90;;;;;;5052583;28;20449;-57
2022/07/26 06:48:08;;;;;;;3.07;2.20;;;22.80;99.90;;;;;;5056697;28;20456;-57
2022/07/26 06:50:35;;;;;;;3.03;2.43;;;22.90;99.90;;;;;;5055876;28;20572;-57
2022/07/26 06:53:02;;;;;;;4.63;2.50;;;22.80;99.90;;;;;;5056299;28;20452;-57
2022/07/26 06:55:30;;;;;;;2.43;2.23;;;22.90;99.90;;;;;;5056037;28;20452;-57
2022/07/26 06:57:57;;;;;;;2.27;2.00;;;22.80;99.10;;;;;;5056552;28;20499;-57
2022/07/26 07:00:24;;;;;;;3.83;1.70;;;22.90;98.20;;;;;;5056340;28;20465;-57
2022/07/26 07:02:53;;;;;;;2.50;1.80;;;23.00;97.50;;;;;;5055996;28;20997;-58
2022/07/26 07:05:20;;;;;;;2.40;2.00;;;23.10;97.40;;;;;;5056028;28;20447;-58
2022/07/26 07:07:47;;;;;;;2.90;1.90;;;23.10;97.90;;;;;;5055848;28;20452;-58
2022/07/26 07:10:14;;;;;;;2.77;2.50;;;23.20;97.60;;;;;;5055935;28;20869;-58
2022/07/26 07:12:43;;;;;;;6.13;2.13;;;23.30;97.50;;;;;;5056094;28;20452;-57
2022/07/26 07:15:11;;;;;;;2.40;1.77;;;23.50;97.20;;;;;;5055849;28;20452;-57
2022/07/26 07:17:38;;;;;;;2.33;2.13;;;23.30;96.50;;;;;;5055930;28;20549;-58
2022/07/26 07:20:08;;;;;;;4.03;2.23;;;23.30;96.30;;;;;;5055930;28;20468;-58
2022/07/26 07:22:35;;;;;;;3.40;1.93;;;23.40;96.30;;;;;;5055337;28;20444;-58
2022/07/26 07:25:02;;;;;;;2.17;1.97;;;23.50;96.00;;;;;;5055812;28;20810;-58
2022/07/26 07:27:29;;;;;;;3.10;1.90;;;23.50;95.90;;;;;;5055408;28;20449;-57
2022/07/26 07:29:57;;;;;;;2.33;1.90;;;23.50;95.80;;;;;;5055194;28;20540;-58
2022/07/26 07:32:24;;;;;;;2.63;1.77;;;23.70;95.40;;;;;;5055406;28;20853;-58
2022/07/26 07:34:51;;;;;;;4.27;1.60;;;23.90;94.40;;;;;;5055808;28;20444;-57
2022/07/26 07:37:19;;;;;;;3.03;2.20;;;24.40;93.70;;;;;;5055359;28;20535;-57
2022/07/26 07:39:47;;;;;;;2.70;1.90;;;25.00;92.70;;;;;;5055129;28;20564;-57
2022/07/26 07:42:14;;;;;;;4.07;1.90;;;25.70;91.90;;;;;;5054773;28;20487;-57
2022/07/26 07:44:41;;;;;;;2.40;1.50;;;26.30;90.50;;;;;;5055339;28;20449;-59
2022/07/26 07:47:09;;;;;;;2.10;1.90;;;26.70;89.20;;;;;;5054867;28;20539;-58
2022/07/26 07:49:37;;;;;;;2.67;1.80;;;27.00;87.20;;;;;;5055238;28;20558;-57
2022/07/26 07:52:04;;;;;;;2.20;1.60;;;27.00;85.10;;;;;;5055396;28;20453;-57
2022/07/26 07:54:33;;;;;;;2.53;1.37;;;26.90;83.00;;;;;;5055033;28;20821;-57
2022/07/26 07:57:00;;;;;;;2.30;1.60;;;26.30;83.90;;;;;;5054686;28;20452;-57
2022/07/26 07:59:27;;;;;;;2.90;1.73;;;26.50;83.40;;;;;;5054913;28;20536;-57
2022/07/26 08:01:55;;;;;;;3.23;2.10;;;26.70;81.80;;;;;;5055057;28;20484;-58
2022/07/26 08:04:22;;;;;;;1.87;1.70;;;27.30;79.80;;;;;;5055040;28;20578;-58
2022/07/26 08:06:49;;;;;;;2.80;1.80;;;27.50;78.80;;;;;;5054863;28;20540;-58
2022/07/26 08:09:17;;;;;;;2.23;1.83;;;27.10;77.80;;;;;;5054535;28;20477;-58
2022/07/26 08:11:45;;;;;;;2.87;1.90;;;27.50;78.00;;;;;;5054711;28;20506;-58
2022/07/26 08:14:13;;;;;;;2.07;1.53;;;27.90;76.30;;;;;;5054743;28;20445;-59
2022/07/26 08:16:40;;;;;;;2.60;1.30;;;28.30;75.40;;;;;;5054490;28;20808;-58
2022/07/26 08:19:07;;;;;;;3.43;2.03;;;29.00;75.10;;;;;;5054563;28;20535;-58
2022/07/26 08:21:35;;;;;;;2.60;1.90;;;29.30;71.10;;;;;;5054457;28;20465;-58
2022/07/26 08:24:02;;;;;;;6.07;1.90;;;;;;;;;;5054732;28;20446;-58
2022/07/26 08:26:30;;;;;;;4.90;1.67;;;30.40;68.10;;;;;;5054369;28;20933;-58
2022/07/26 08:28:58;;;;;;;2.10;1.30;;;30.80;67.00;;;;;;5054732;28;20453;-58
2022/07/26 08:31:25;;;;;;;3.50;1.60;;;30.10;65.60;;;;;;5054667;28;20465;-58
2022/07/26 08:33:52;;;;;;;1.77;1.60;;;29.80;65.90;;;;;;5054068;28;20521;-58
2022/07/26 08:36:20;;;;;;;2.50;1.63;;;29.40;65.70;;;;;;5054046;28;21016;-58
2022/07/26 08:38:47;;;;;;;8.03;2.13;;;29.50;66.70;;;;;;5054154;28;20449;-58
2022/07/26 08:41:14;;;;;;;3.50;1.70;;;29.30;65.80;;;;;;5053766;28;20494;-59
2022/07/26 08:43:41;;;;;;;6.70;2.00;;;29.10;64.40;;;;;;5054342;28;20429;-58
2022/07/26 08:46:10;;;;;;;3.17;1.70;;;29.10;64.00;;;;;;5053965;28;20995;-58
2022/07/26 08:48:38;;;;;;;2.30;1.83;;;29.20;64.20;;;;;;5053743;28;20434;-58
2022/07/26 08:51:11;;;;;;;6.70;3.10;;;29.50;62.60;;;;;;5053938;28;20499;-58
2022/07/26 08:53:39;;;;;;;6.10;1.83;;;28.80;62.40;;;;;;5053725;28;20438;-58
2022/07/26 08:56:07;;;;;;;3.00;1.83;;;28.80;64.80;;;;;;5053806;28;20536;-58
2022/07/26 08:58:35;;;;;;;2.67;2.07;;;28.70;63.40;;;;;;5053788;28;20991;-58
2022/07/26 09:01:08;;;;;;;2.47;1.70;;;29.60;61.20;;;;;;5053732;28;20961;-58
2022/07/26 09:03:37;;;;;;;3.00;1.63;;;30.10;61.30;;;;;;5054024;28;20453;-58
2022/07/26 09:06:16;;;;;;;1.50;1.40;;;30.20;59.80;;;;;;5053422;28;20456;-58
2022/07/26 09:08:45;;;;;;;5.80;2.00;;;29.90;59.50;;;;;;5052706;28;20532;-59
2022/07/26 09:11:29;;;;;;;11.60;2.57;;;29.10;60.00;;;;;;5053401;28;20566;-58
2022/07/26 09:13:58;;;;;;;9.03;1.80;;;28.40;60.80;;;;;;5053773;28;20445;-59
2022/07/26 09:16:26;;;;;;;3.70;1.70;;;28.80;63.30;;;;;;5053729;28;20502;-58
2022/07/26 09:18:55;;;;;;;1.90;1.70;;;29.40;59.90;;;;;;5053588;28;20524;-58
2022/07/26 09:21:30;;;;;;;3.77;1.50;;;28.50;59.90;;;;;;5053015;28;20461;-58
2022/07/26 09:23:58;;;;;;;2.70;1.60;;;28.70;61.00;;;;;;5053414;28;20454;-59
2022/07/26 09:26:25;;;;;;;4.50;1.97;;;;;;;;;;5053219;28;20450;-59
2022/07/26 09:29:04;;;;;;;8.77;1.70;;;28.40;59.60;;;;;;5053078;28;20544;-58
2022/07/26 09:31:31;;;;;;;7.63;2.70;;;28.30;61.80;;;;;;5052883;28;20524;-60
2022/07/26 09:34:00;;;;;;;6.70;1.90;;;28.10;62.00;;;;;;5053566;28;20453;-59
2022/07/26 09:36:27;;;;;;;7.60;2.20;;;27.60;63.30;;;;;;5053161;28;20488;-58
2022/07/26 09:38:57;;;;;;;1.97;1.67;;;27.90;62.80;;;;;;5053050;28;20579;-59
2022/07/26 09:41:26;;;;;;;2.27;1.90;;;27.50;63.00;;;;;;5053122;28;20496;-59
2022/07/26 09:43:55;;;;;;;3.17;1.70;;;27.80;64.40;;;;;;5053098;28;20437;-59
2022/07/26 09:46:24;;;;;;;5.40;1.90;;;28.70;61.10;;;;;;5052569;28;20463;-59
2022/07/26 09:48:52;;;;;;;3.20;1.60;;;28.80;61.20;;;;;;5053069;28;20445;-59
2022/07/26 09:51:36;;;;;;;2.10;1.40;;;27.80;61.70;;;;;;5052704;28;20576;-58
2022/07/26 09:54:04;;;;;;;3.30;1.77;;;26.90;63.60;;;;;;5053331;28;20839;-59
2022/07/26 09:56:46;;;;;;;1.90;1.50;;;28.00;63.30;;;;;;5052665;28;20956;-58
2022/07/26 09:59:15;;;;;;;2.80;1.80;;;28.50;62.20;;;;;;5053108;28;20460;-58
2022/07/26 10:01:42;;;;;;;3.40;1.40;;;28.80;62.40;;;;;;5052636;28;20441;-59
2022/07/26 10:04:10;;;;;;;2.53;1.87;;;28.50;62.20;;;;;;5052889;28;20499;-59
2022/07/26 10:06:39;;;;;;;3.60;1.70;;;28.20;62.40;;;;;;5052556;28;20452;-59
2022/07/26 10:09:08;;;;;;;2.30;1.60;;;27.90;62.70;;;;;;5052618;28;20457;-59
2022/07/26 10:11:40;;;;;;;2.07;1.47;;;29.20;63.20;;;;;;5052592;28;20489;-59
2022/07/26 10:14:40;;;;;;;6.07;1.80;;;28.40;61.30;;;;;;5052857;28;20556;-59
2022/07/26 10:17:41;;;;;;;3.33;1.80;;;28.50;63.30;;;;;;5052580;28;20525;-60
2022/07/26 10:20:10;;;;;;;1.80;1.50;;;30.10;60.20;;;;;;5009445;28;20473;-60
2022/07/26 10:22:45;;;;;;;3.97;2.10;;;30.90;59.20;;;;;;5052357;28;20437;-60
2022/07/26 10:25:46;;;;;;;1.60;1.47;;;31.10;58.50;;;;;;5052735;28;20439;-59
2022/07/26 10:28:25;;;;;;;4.33;1.77;;;31.10;58.20;;;;;;5052839;28;20433;-59
2022/07/26 10:30:53;;;;;;;3.10;1.40;;;30.50;58.10;;;;;;5052583;28;20519;-59
2022/07/26 10:33:24;;;;;;;3.60;1.70;;;30.10;58.60;;;;;;5052690;28;20456;-59
2022/07/26 10:35:52;;;;;;;2.20;2.00;;;30.80;58.80;;;;;;5052691;28;20425;-59
2022/07/26 10:38:28;;;;;;;4.83;2.00;;;30.90;58.00;;;;;;5052330;28;20507;-60
2022/07/26 10:40:57;;;;;;;2.30;2.00;;;30.30;57.80;;;;;;5052743;28;20473;-58
2022/07/26 10:43:26;;;;;;;2.40;1.67;;;30.70;57.50;;;;;;5052056;28;20487;-58
2022/07/26 10:46:23;;;;;;;2.00;1.43;;;31.30;57.40;;;;;;5052408;28;20516;-60
2022/07/26 10:48:57;;;;;;;5.70;2.33;;;31.50;56.80;;;;;;5052474;28;20460;-59
2022/07/26 10:51:26;;;;;;;2.77;1.50;;;31.10;57.60;;;;;;5052167;28;20495;-59
2022/07/26 10:54:01;;;;;;;1.90;1.63;;;31.10;57.40;;;;;;5052059;28;20448;-59
2022/07/26 10:56:29;;;;;;;2.70;1.93;;;30.70;57.40;;;;;;5052369;28;20528;-59
2022/07/26 10:58:56;;;;;;;1.57;1.47;;;31.10;57.80;;;;;;5052672;28;20449;-60
2022/07/26 11:01:33;;;;;;;2.23;1.80;;;31.20;56.40;;;;;;5051994;28;20549;-59
2022/07/26 11:04:01;;;;;;;2.90;1.47;;;31.50;56.00;;;;;;5052331;28;20432;-60
2022/07/26 11:06:29;;;;;;;2.47;1.60;;;31.70;56.00;;;;;;5052030;28;20929;-60
2022/07/26 11:08:57;;;;;;;2.73;1.47;;;32.20;55.30;;;;;;5052231;28;20449;-60
2022/07/26 11:11:30;;;;;;;1.83;1.73;;;32.00;55.40;;;;;;5051996;28;20488;-59
2022/07/26 11:14:08;;;;;;;2.43;1.93;;;31.70;55.10;;;;;;5052464;28;20455;-60
2022/07/26 11:16:39;;;;;;;1.90;1.60;;;32.10;54.70;;;;;;5052419;28;20467;-59
2022/07/26 11:19:19;;;;;;;1.77;1.57;;;31.60;55.10;;;;;;5051677;28;21004;-59
2022/07/26 11:21:52;;;;;;;3.47;1.47;;;32.10;54.70;;;;;;5052144;28;20460;-60
2022/07/26 11:24:20;;;;;;;3.47;1.60;;;32.00;54.10;;;;;;5051911;28;20445;-60
2022/07/26 11:26:49;;;;;;;3.00;1.50;;;31.50;54.70;;;;;;5052412;28;20556;-60
2022/07/26 11:29:26;;;;;;;1.73;1.60;;;29.30;55.80;;;;;;5052555;28;20963;-57
2022/07/26 11:31:54;;;;;;;2.30;1.70;;;28.50;56.40;;;;;;5052373;28;20453;-60
2022/07/26 11:34:22;;;;;;;4.23;1.60;;;29.40;56.70;;;;;;5055425;28;20515;-58
2022/07/26 11:36:52;;;;;;;1.90;1.40;;;29.90;55.70;;;;;;5055899;28;20452;-58
2022/07/26 11:39:22;;;;;;;2.57;1.50;;;30.40;56.00;;;;;;5055936;28;20473;-60
2022/07/26 11:41:56;;;;;;;2.40;1.50;;;31.10;54.60;;;;;;5055255;28;20512;-60
2022/07/26 11:44:24;;;;;;;1.60;1.50;;;31.60;54.60;;;;;;5055673;28;20518;-59
2022/07/26 11:46:52;;;;;;;2.90;1.30;;;31.90;53.70;;;;;;5055517;28;20516;-59
2022/07/26 11:49:21;;;;;;;3.97;1.60;;;32.10;52.90;;;;;;5055357;28;20484;-59
2022/07/26 11:51:53;;;;;;;1.90;1.43;;;31.30;52.80;;;;;;5055075;28;20520;-59
2022/07/26 11:54:20;;;;;;;2.13;1.70;;;30.10;54.00;;;;;;5054944;28;20453;-59
2022/07/26 11:56:54;;;;;;;1.50;1.30;;;30.00;53.80;;;;;;5055327;28;20980;-58
2022/07/26 11:59:22;;;;;;;4.77;1.60;;;30.30;54.10;;;;;;5055223;28;20555;-59
2022/07/26 12:01:49;;;;;;;1.60;1.50;;;31.00;54.40;;;;;;5055344;28;20471;-59
2022/07/26 12:04:23;;;;;;;1.70;1.60;;;31.80;53.40;;;;;;5055374;28;20655;-58
2022/07/26 12:06:50;;;;;;;4.67;1.50;;;31.30;52.70;;;;;;5055104;28;20442;-60
2022/07/26 12:09:31;;;;;;;3.43;1.60;;;31.00;53.60;;;;;;5054883;28;20515;-59
2022/07/26 12:12:01;;;;;;;2.10;1.67;;;31.00;53.00;;;;;;5054808;28;21019;-59
2022/07/26 12:14:29;;;;;;;3.97;1.67;;;32.00;52.50;;;;;;5055059;28;20504;-59
2022/07/26 12:16:57;;;;;;;5.83;1.63;;;31.20;52.10;;;;;;5054883;28;20647;-58
2022/07/26 12:19:26;;;;;;;1.87;1.47;;;31.00;52.30;;;;;;5054447;28;20456;-59
2022/07/26 12:21:55;;;;;;;1.50;1.40;;;30.90;52.50;;;;;;5054607;28;21001;-59
2022/07/26 12:24:38;;;;;;;2.33;1.60;;;31.10;52.10;;;;;;5054655;28;20967;-59
2022/07/26 12:27:09;;;;;;;2.13;1.30;;;30.20;52.70;;;;;;5054973;28;20457;-59
2022/07/26 12:29:37;;;;;;;4.03;2.10;;;29.60;52.90;;;;;;5054641;28;20461;-59
2022/07/26 12:32:07;;;;;;;3.20;1.70;;;29.00;53.20;;;;;;5054649;28;20560;-59
2022/07/26 12:34:36;;;;;;;2.40;1.63;;;29.60;53.20;;;;;;5054454;28;20441;-59
2022/07/26 12:37:11;;;;;;;1.63;1.40;;;29.50;52.90;;;;;;5054729;28;20457;-59
2022/07/26 12:39:39;;;;;;;2.23;1.43;;;29.80;52.80;;;;;;5054490;28;20567;-59
2022/07/26 12:42:24;;;;;;;3.10;1.67;;;30.20;52.40;;;;;;5054075;28;20484;-59
2022/07/26 12:44:51;;;;;;;2.47;1.47;;;29.80;52.40;;;;;;5053667;28;20499;-59
2022/07/26 12:47:19;;;;;;;2.17;1.50;;;30.10;52.50;;;;;;5054438;28;20537;-59
2022/07/26 12:49:46;;;;;;;1.57;1.47;;;30.40;52.10;;;;;;5054134;28;20876;-58
2022/07/26 12:52:15;;;;;;;3.83;1.90;;;29.90;52.10;;;;;;5054279;28;20481;-59
2022/07/26 12:54:44;;;;;;;2.00;1.30;;;29.80;51.00;;;;;;5054419;28;20449;-59
2022/07/26 12:57:11;;;;;;;1.90;1.70;;;29.20;51.40;;;;;;5054107;28;20442;-59
2022/07/26 12:59:40;;;;;;;1.90;1.43;;;28.80;52.00;;;;;;5053963;28;20527;-59
2022/07/26 13:02:07;;;;;;;2.17;1.97;;;28.90;52.40;;;;;;5054360;28;20540;-59